Time;durP1;ratioP1;P1;durP2;ratioP2;P2;SDS_P1;SDS_P2;PMS_P1;PMS_P2;Temp;Humidity;BMP_temperature;BMP_pressure;BME280_temperature;BME280_humidity;BME280_pressure;Samples;Min_cycle;Max_cycle;Signal;HPM_P1;HPM_P2
2023/04/11 00:01:02;;;;;;;16.80;14.00;;;;;;;10.10;62.08;100844.75;108040;1254;73058;-84
2023/04/11 00:03:32;;;;;;;18.90;13.00;;;;;;;10.08;61.99;100840.89;108128;1257;61347;-83
2023/04/11 00:06:01;;;;;;;17.00;13.00;;;;;;;10.04;61.88;100843.35;108147;1254;61206;-84
2023/04/11 00:08:31;;;;;;;15.70;12.70;;;;;;;10.02;61.75;100842.19;108098;1254;73101;-84
2023/04/11 00:11:01;;;;;;;16.70;12.90;;;;;;;9.98;61.72;100845.84;108098;1254;71863;-84
2023/04/11 00:13:30;;;;;;;18.00;13.80;;;;;;;9.97;61.65;100846.02;108137;1254;72792;-83
2023/04/11 00:16:04;;;;;;;16.30;13.40;;;;;;;9.95;61.58;100842.58;108202;1254;60444;-84
2023/04/11 00:18:36;;;;;;;16.40;13.60;;;;;;;9.93;61.61;100842.44;108171;1254;60499;-83
2023/04/11 00:21:06;;;;;;;18.20;13.40;;;;;;;9.90;61.55;100845.70;108176;1254;72544;-84
2023/04/11 00:23:36;;;;;;;;;;;;;;;9.88;61.64;100843.75;108501;1254;72863;-83
2023/04/11 00:26:05;;;;;;;15.60;12.70;;;;;;;9.86;61.61;100843.14;108714;1254;70839;-84
2023/04/11 00:28:41;;;;;;;16.50;13.40;;;;;;;9.82;61.61;100837.85;108475;1254;61974;-84
2023/04/11 00:31:11;;;;;;;15.70;13.80;;;;;;;9.77;61.73;100840.61;108102;1258;60278;-83
2023/04/11 00:33:41;;;;;;;18.80;14.00;;;;;;;9.72;61.79;100840.70;108163;1254;74172;-83
2023/04/11 00:36:09;;;;;;;17.20;13.60;;;;;;;9.70;61.80;100837.15;108106;1253;74002;-83
2023/04/11 00:38:39;;;;;;;16.20;12.80;;;;;;;9.68;61.79;100836.43;108165;1257;71827;-83
2023/04/11 00:41:09;;;;;;;19.80;13.50;;;;;;;9.67;61.90;100835.27;108166;1254;61326;-83
2023/04/11 00:43:48;;;;;;;16.70;13.40;;;;;;;9.65;61.82;100834.45;108214;1253;60041;-82
2023/04/11 00:46:17;;;;;;;17.00;13.30;;;;;;;9.61;61.81;100836.11;108167;1254;74949;-83
2023/04/11 00:48:46;;;;;;;15.30;13.40;;;;;;;9.56;61.83;100833.15;108170;1257;72241;-83
2023/04/11 00:51:22;;;;;;;16.30;13.60;;;;;;;9.51;61.82;100836.38;108166;1258;73941;-83
2023/04/11 00:53:52;;;;;;;16.60;13.10;;;;;;;9.47;61.82;100833.33;108147;1257;62766;-83
2023/04/11 00:56:21;;;;;;;16.90;13.40;;;;;;;9.44;61.87;100830.81;108159;1253;61040;-83
2023/04/11 00:58:49;;;;;;;15.70;12.90;;;;;;;9.43;61.92;100833.90;108094;1254;74063;-83
2023/04/11 01:01:18;;;;;;;19.40;13.70;;;;;;;9.45;61.94;100835.80;108186;1254;73807;-83
2023/04/11 01:03:47;;;;;;;16.10;13.70;;;;;;;9.43;61.98;100837.58;108205;1254;73937;-83
2023/04/11 01:06:18;;;;;;;17.00;13.50;;;;;;;9.42;61.98;100840.02;108064;1253;61531;-83
2023/04/11 01:08:48;;;;;;;18.30;13.70;;;;;;;9.38;61.97;100843.42;108006;1254;61922;-83
2023/04/11 01:11:19;;;;;;;16.70;13.40;;;;;;;9.32;61.99;100845.61;108128;1253;74879;-83
2023/04/11 01:13:48;;;;;;;17.00;13.00;;;;;;;9.29;62.09;100846.42;108107;1254;73909;-82
2023/04/11 01:16:20;;;;;;;16.80;13.20;;;;;;;9.26;62.19;100850.41;108029;1253;72445;-82
2023/04/11 01:18:49;;;;;;;;;;;;;;;9.23;62.21;100848.98;108119;1253;63178;-83
2023/04/11 01:21:18;;;;;;;17.90;14.20;;;;;;;9.21;62.19;100846.69;108131;1253;61310;-83
2023/04/11 01:23:47;;;;;;;17.10;14.20;;;;;;;9.19;62.39;100840.07;107890;1254;73490;-82
2023/04/11 01:26:16;;;;;;;18.30;14.60;;;;;;;9.20;62.35;100838.52;108119;1254;73709;-82
2023/04/11 01:28:45;;;;;;;22.30;15.90;;;;;;;9.18;62.44;100837.96;108139;1253;73413;-82
2023/04/11 01:31:15;;;;;;;19.70;15.00;;;;;;;9.21;62.30;100834.44;108103;1253;61534;-82
2023/04/11 01:33:44;;;;;;;20.40;15.30;;;;;;;9.15;62.39;100832.43;108077;1254;60546;-83
2023/04/11 01:36:12;;;;;;;19.30;15.40;;;;;;;9.12;62.38;100831.53;108150;1258;73915;-83
2023/04/11 01:38:43;;;;;;;19.70;15.00;;;;;;;9.10;62.36;100830.05;108132;1257;73956;-84
2023/04/11 01:41:11;;;;;;;20.00;15.20;;;;;;;9.06;62.33;100826.05;108114;1254;73277;-83
2023/04/11 01:43:41;;;;;;;20.40;16.20;;;;;;;9.06;62.45;100826.88;108178;1253;60824;-84
2023/04/11 01:46:12;;;;;;;19.40;14.30;;;;;;;9.05;62.46;100829.38;108148;1253;61057;-84
2023/04/11 01:48:41;;;;;;;19.20;15.50;;;;;;;9.03;62.35;100826.30;108519;1253;74697;-84
2023/04/11 01:51:11;;;;;;;17.40;14.60;;;;;;;8.99;62.56;100822.39;108583;1253;71471;-83
2023/04/11 01:53:39;;;;;;;21.10;15.40;;;;;;;9.03;62.49;100824.02;108203;1257;71762;-83
2023/04/11 01:56:08;;;;;;;22.00;16.00;;;;;;;9.02;62.45;100826.13;108088;1254;60275;-83
2023/04/11 01:58:37;;;;;;;17.40;14.80;;;;;;;8.96;62.57;100820.63;108093;1253;61060;-84
2023/04/11 02:01:13;;;;;;;20.80;16.20;;;;;;;8.92;62.54;100819.29;108136;1254;71571;-83
2023/04/11 02:03:45;;;;;;;19.00;15.60;;;;;;;8.88;62.56;100816.98;108195;1254;71849;-84
2023/04/11 02:06:17;;;;;;;22.10;15.60;;;;;;;8.84;62.67;100816.16;108188;1254;73551;-82
2023/04/11 02:08:52;;;;;;;19.30;15.20;;;;;;;8.82;62.62;100816.92;107932;1253;62950;-82
2023/04/11 02:11:21;;;;;;;19.20;14.90;;;;;;;8.80;62.49;100815.40;104340;1254;5212636;-85
2023/04/11 02:13:52;;;;;;;21.90;15.40;;;;;;;8.78;62.49;100813.60;108157;1253;73599;-85
2023/04/11 02:16:24;;;;;;;21.40;15.50;;;;;;;8.75;62.50;100808.38;108039;1253;73621;-83
2023/04/11 02:18:53;;;;;;;19.50;15.90;;;;;;;8.72;62.53;100805.86;108186;1253;61306;-84
2023/04/11 02:21:22;;;;;;;20.60;16.30;;;;;;;8.71;62.46;100805.81;107957;1254;60187;-83
2023/04/11 02:23:53;;;;;;;23.20;15.40;;;;;;;8.74;62.33;100804.20;107981;1253;71674;-83
2023/04/11 02:26:25;;;;;;;20.00;16.30;;;;;;;8.72;62.39;100802.19;108116;1253;73045;-83
2023/04/11 02:28:56;;;;;;;22.70;17.10;;;;;;;8.69;62.41;100801.88;108156;1253;71994;-83
2023/04/11 02:31:27;;;;;;;23.10;16.20;;;;;;;8.66;62.40;100801.41;108031;1257;62299;-83
2023/04/11 02:33:56;;;;;;;22.30;17.00;;;;;;;8.64;62.46;100804.17;108294;1254;60531;-84
2023/04/11 02:36:27;;;;;;;22.50;16.10;;;;;;;8.63;62.51;100803.80;108079;1253;75058;-84
2023/04/11 02:38:55;;;;;;;24.30;17.30;;;;;;;8.61;62.52;100800.71;107990;1256;70895;-83
2023/04/11 02:41:26;;;;;;;19.90;15.70;;;;;;;8.58;62.52;100800.52;107949;1258;73667;-83
2023/04/11 02:44:01;;;;;;;20.00;15.80;;;;;;;8.56;62.57;100801.42;108056;1253;62110;-83
2023/04/11 02:46:30;;;;;;;22.20;15.40;;;;;;;8.54;62.53;100798.78;108076;1253;59678;-83
2023/04/11 02:48:59;;;;;;;20.00;15.20;;;;;;;8.52;62.43;100795.38;108131;1253;73041;-83
2023/04/11 02:51:28;;;;;;;18.80;15.20;;;;;;;8.50;62.45;100791.92;108130;1254;73832;-83
2023/04/11 02:53:57;;;;;;;22.90;15.70;;;;;;;8.48;62.48;100788.77;108120;1253;72461;-86
2023/04/11 02:56:37;;;;;;;21.30;15.70;;;;;;;8.46;62.50;100789.20;108008;1254;60440;-83
2023/04/11 02:59:09;;;;;;;20.10;15.80;;;;;;;8.43;62.61;100787.76;108045;1254;61030;-84
2023/04/11 03:01:44;;;;;;;19.30;15.20;;;;;;;8.40;62.52;100786.96;108102;1254;73194;-83
2023/04/11 03:04:55;;;;;;;20.90;15.90;;;;;;;8.37;62.52;100784.31;108111;1253;72549;-83
2023/04/11 03:07:23;;;;;;;19.80;14.50;;;;;;;8.34;62.43;100783.08;108050;1253;73705;-83
2023/04/11 03:09:58;;;;;;;18.50;14.70;;;;;;;8.32;62.33;100782.93;108078;1254;63118;-84
2023/04/11 03:12:27;;;;;;;18.80;14.90;;;;;;;8.31;62.29;100784.18;108388;1254;59021;-80
2023/04/11 03:14:57;;;;;;;18.60;14.50;;;;;;;8.31;62.26;100789.18;108653;1256;73648;-83
2023/04/11 03:17:29;;;;;;;19.10;15.10;;;;;;;8.30;62.33;100784.02;108432;1253;71745;-83
2023/04/11 03:19:58;;;;;;;18.70;14.70;;;;;;;8.30;62.30;100776.51;108111;1253;73658;-83
2023/04/11 03:22:27;;;;;;;18.90;15.30;;;;;;;8.28;62.14;100780.09;108132;1253;61613;-83
2023/04/11 03:24:56;;;;;;;18.90;14.30;;;;;;;8.27;62.11;100785.45;107871;1254;61103;-82
2023/04/11 03:27:25;;;;;;;18.70;14.40;;;;;;;8.26;61.93;100787.05;108075;1254;72917;-83
2023/04/11 03:29:57;;;;;;;20.30;14.00;;;;;;;8.27;61.83;100786.23;108175;1253;70885;-83
2023/04/11 03:32:32;;;;;;;20.70;15.40;;;;;;;8.27;61.58;100786.23;108138;1254;73655;-83
2023/04/11 03:35:00;;;;;;;18.20;13.80;;;;;;;8.28;61.47;100783.22;108135;1253;60303;-84
2023/04/11 03:37:30;;;;;;;18.50;14.50;;;;;;;8.30;61.23;100783.63;108178;1253;60437;-84
2023/04/11 03:39:58;;;;;;;18.00;14.30;;;;;;;8.34;61.11;100786.16;108091;1254;74412;-84
2023/04/11 03:42:26;;;;;;;18.30;13.10;;;;;;;8.37;60.95;100786.81;108068;1259;73735;-83
2023/04/11 03:44:57;;;;;;;17.40;14.40;;;;;;;8.40;60.69;100790.25;108057;1254;72437;-84
2023/04/11 03:47:26;;;;;;;18.10;13.90;;;;;;;8.42;60.53;100791.64;108048;1254;61205;-83
2023/04/11 03:49:56;;;;;;;18.90;13.80;;;;;;;8.46;60.33;100790.37;108094;1254;60556;-82
2023/04/11 03:52:24;;;;;;;19.50;13.90;;;;;;;8.50;60.19;100789.42;108091;1253;75188;-83
2023/04/11 03:54:53;;;;;;;20.10;15.40;;;;;;;8.54;59.91;100786.78;108216;1253;72525;-83
2023/04/11 03:57:22;;;;;;;18.90;14.00;;;;;;;8.58;59.58;100783.94;108165;1253;73234;-83
2023/04/11 03:59:51;;;;;;;19.40;13.70;;;;;;;8.63;59.12;100782.59;108187;1253;61279;-82
2023/04/11 04:02:20;;;;;;;19.70;14.00;;;;;;;8.71;58.83;100779.00;108014;1253;60824;-83
2023/04/11 04:04:57;;;;;;;21.50;15.10;;;;;;;8.79;58.40;100775.23;108106;1253;74840;-83
2023/04/11 04:07:36;;;;;;;20.80;14.60;;;;;;;8.85;58.14;100766.73;108172;1254;73062;-83
2023/04/11 04:10:14;;;;;;;18.70;13.00;;;;;;;8.91;57.91;100765.89;108081;1254;73840;-83
2023/04/11 04:12:44;;;;;;;22.70;14.20;;;;;;;8.99;57.65;100760.63;108141;1257;59889;-84
2023/04/11 04:15:25;;;;;;;18.80;14.40;;;;;;;9.07;57.31;100757.89;108193;1253;60544;-82
2023/04/11 04:17:54;;;;;;;17.00;13.30;;;;;;;9.13;57.04;100754.10;108191;1253;73308;-84
2023/04/11 04:20:36;;;;;;;16.50;13.10;;;;;;;9.26;56.68;100746.45;108089;1254;72232;-83
2023/04/11 04:23:06;;;;;;;20.30;13.60;;;;;;;9.35;56.09;100745.48;108109;1254;73577;-84
2023/04/11 04:25:49;;;;;;;16.10;13.10;;;;;;;9.44;55.69;100744.19;108156;1253;60260;-84
2023/04/11 04:28:24;;;;;;;17.10;13.20;;;;;;;9.51;55.19;100740.06;108112;1253;60520;-84
2023/04/11 04:30:56;;;;;;;17.90;12.90;;;;;;;9.54;54.83;100736.75;108116;1254;74038;-84
2023/04/11 04:33:31;;;;;;;16.40;12.20;;;;;;;9.63;54.03;100731.73;108172;1253;71982;-85
2023/04/11 04:36:03;;;;;;;17.70;13.60;;;;;;;9.72;53.56;100733.48;108513;1257;73354;-83
2023/04/11 04:38:37;;;;;;;17.30;13.20;;;;;;;9.81;53.59;100728.67;108741;1253;59552;-82
2023/04/11 04:41:15;;;;;;;16.60;12.90;;;;;;;9.90;53.45;100727.20;108735;1253;60391;-82
2023/04/11 04:43:53;;;;;;;18.90;12.60;;;;;;;9.97;52.92;100725.79;108048;1254;72034;-85
2023/04/11 04:46:35;;;;;;;14.70;11.50;;;;;;;10.11;52.76;100728.98;108273;1254;73196;-82
2023/04/11 04:49:06;;;;;;;17.60;12.90;;;;;;;10.20;52.42;100728.61;109285;1254;71949;-83
2023/04/11 04:51:36;;;;;;;16.60;12.20;;;;;;;10.27;52.28;100731.49;109382;1254;59383;-83
2023/04/11 04:54:08;;;;;;;15.40;12.60;;;;;;;10.40;52.12;100728.10;108693;1258;59034;-79
2023/04/11 04:56:38;;;;;;;16.50;12.40;;;;;;;10.47;52.08;100724.77;108642;1254;73899;-81
2023/04/11 04:59:14;;;;;;;15.00;12.50;;;;;;;10.55;51.77;100721.80;108622;1257;72100;-83
2023/04/11 05:01:50;;;;;;;18.10;12.60;;;;;;;10.64;51.65;100720.60;108913;1256;71664;-83
2023/04/11 05:04:25;;;;;;;18.50;12.70;;;;;;;10.72;51.40;100721.80;108292;1253;61006;-83
2023/04/11 05:06:55;;;;;;;16.40;12.20;;;;;;;10.80;50.70;100724.64;108533;1257;60336;-82
2023/04/11 05:09:27;;;;;;;16.00;12.50;;;;;;;10.88;50.86;100725.56;108321;1257;74854;-83
2023/04/11 05:12:05;;;;;;;14.80;12.10;;;;;;;10.96;50.61;100723.80;108114;1253;72773;-85
2023/04/11 05:14:36;;;;;;;15.00;12.40;;;;;;;11.02;50.38;100722.41;108160;1253;73462;-84
2023/04/11 05:17:09;;;;;;;16.80;12.40;;;;;;;11.06;50.68;100723.85;108231;1256;59442;-84
2023/04/11 05:19:40;;;;;;;14.60;12.20;;;;;;;11.17;50.42;100722.38;108198;1253;60396;-84
2023/04/11 05:22:09;;;;;;;15.80;11.80;;;;;;;11.28;49.81;100719.67;108204;1253;73076;-83
2023/04/11 05:24:45;;;;;;;16.30;12.30;;;;;;;11.35;49.88;100715.33;108293;1253;73587;-81
2023/04/11 05:27:13;;;;;;;17.50;11.90;;;;;;;11.41;50.10;100715.30;108289;1253;74974;-84
2023/04/11 05:29:43;;;;;;;13.50;11.20;;;;;;;11.47;49.90;100711.02;108205;1254;60498;-83
2023/04/11 05:32:14;;;;;;;15.30;12.00;;;;;;;11.54;49.70;100707.25;108133;1253;61985;-83
2023/04/11 05:34:53;;;;;;;16.30;11.90;;;;;;;11.53;49.52;100705.85;108113;1253;73298;-84
2023/04/11 05:37:43;;;;;;;14.60;11.50;;;;;;;11.58;49.60;100702.52;108180;1253;71986;-83
2023/04/11 05:40:13;;;;;;;15.80;10.60;;;;;;;11.63;49.34;100702.64;108126;1253;72718;-84
2023/04/11 05:42:42;;;;;;;15.70;11.60;;;;;;;11.71;49.20;100700.42;108053;1253;60328;-84
2023/04/11 05:45:11;;;;;;;14.70;11.20;;;;;;;11.80;48.91;100697.64;108087;1253;61557;-84
2023/04/11 05:47:41;;;;;;;13.90;10.40;;;;;;;11.91;49.04;100702.05;108013;1256;73797;-83
2023/04/11 05:50:09;;;;;;;15.00;10.90;;;;;;;12.01;49.09;100700.96;108084;1253;72148;-83
2023/04/11 05:52:38;;;;;;;12.80;10.70;;;;;;;12.09;49.17;100701.46;108095;1253;72338;-84
2023/04/11 05:55:08;;;;;;;16.10;10.60;;;;;;;12.16;48.84;100693.13;108109;1253;60649;-85
2023/04/11 05:57:40;;;;;;;15.00;10.50;;;;;;;12.16;48.81;100692.45;108106;1253;61181;-84
2023/04/11 06:00:15;;;;;;;16.60;11.20;;;;;;;12.21;48.51;100691.80;108210;1253;73830;-84
2023/04/11 06:03:06;;;;;;;16.00;10.00;;;;;;;12.31;49.07;100695.67;108691;1253;74171;-83
2023/04/11 06:05:36;;;;;;;15.20;10.50;;;;;;;12.43;49.01;100693.08;108511;1253;71641;-83
2023/04/11 06:08:07;;;;;;;13.40;9.40;;;;;;;12.55;48.89;100693.15;108138;1253;60338;-83
2023/04/11 06:10:37;;;;;;;12.90;9.90;;;;;;;12.70;48.52;100691.77;108108;1253;60532;-83
2023/04/11 06:13:09;;;;;;;14.40;9.80;;;;;;;12.79;48.35;100688.39;108045;1253;73806;-86
2023/04/11 06:15:39;;;;;;;14.20;9.50;;;;;;;12.87;48.46;100686.46;108080;1253;72993;-84
2023/04/11 06:18:08;;;;;;;12.40;9.30;;;;;;;12.99;48.26;100689.94;108034;1253;72676;-85
2023/04/11 06:20:45;;;;;;;15.10;9.70;;;;;;;13.10;47.28;100681.29;108156;1253;60443;-84
2023/04/11 06:23:14;;;;;;;11.90;9.00;;;;;;;13.17;47.00;100677.31;108069;1253;60024;-84
2023/04/11 06:25:42;;;;;;;12.80;9.60;;;;;;;13.27;47.23;100682.90;108163;1253;71994;-83
2023/04/11 06:28:13;;;;;;;12.50;8.50;;;;;;;13.34;46.27;100679.61;108134;1253;73735;-83
2023/04/11 06:30:42;;;;;;;12.00;8.70;;;;;;;13.41;46.40;100680.39;108137;1253;73849;-84
2023/04/11 06:33:11;;;;;;;13.10;8.60;;;;;;;13.48;47.03;100676.83;108041;1254;61363;-83
2023/04/11 06:35:44;;;;;;;12.40;9.10;;;;;;;13.54;46.47;100677.25;108109;1253;59240;-84
2023/04/11 06:38:14;;;;;;;12.10;8.80;;;;;;;13.62;46.06;100678.19;108181;1253;74987;-84
2023/04/11 06:40:43;;;;;;;11.20;8.50;;;;;;;13.70;46.28;100674.78;108091;1253;72787;-82
2023/04/11 06:43:12;;;;;;;11.00;8.00;;;;;;;13.71;45.81;100670.96;108012;1257;73825;-83
2023/04/11 06:45:42;;;;;;;11.30;8.10;;;;;;;13.75;46.30;100673.58;108103;1258;60347;-85
2023/04/11 06:48:11;;;;;;;9.70;7.80;;;;;;;13.80;45.39;100674.52;108118;1256;60442;-83
2023/04/11 06:50:40;;;;;;;10.80;7.90;;;;;;;13.89;45.36;100672.33;108066;1254;74979;-84
2023/04/11 06:53:10;;;;;;;11.30;8.20;;;;;;;13.98;44.61;100666.70;108068;1253;73315;-82
2023/04/11 06:55:39;;;;;;;8.30;7.10;;;;;;;14.04;44.99;100659.70;108108;1253;73857;-83
2023/04/11 06:58:08;;;;;;;8.60;7.50;;;;;;;14.12;45.34;100657.60;108137;1253;60841;-85
2023/04/11 07:00:38;;;;;;;10.10;7.60;;;;;;;14.19;45.37;100656.48;108103;1257;61213;-82
2023/04/11 07:03:08;;;;;;;13.10;8.40;;;;;;;14.26;45.65;100657.23;108181;1253;74867;-83
2023/04/11 07:05:40;;;;;;;12.00;7.00;;;;;;;14.37;45.29;100657.17;108173;1255;70706;-83
2023/04/11 07:08:13;;;;;;;9.30;6.60;;;;;;;14.43;44.14;100657.08;108123;1253;70847;-82
2023/04/11 07:10:43;;;;;;;9.80;7.00;;;;;;;14.45;43.92;100648.34;108147;1254;60569;-83
2023/04/11 07:13:11;;;;;;;10.40;7.00;;;;;;;14.47;43.50;100649.94;108111;1252;61246;-84
2023/04/11 07:15:42;;;;;;;10.30;7.20;;;;;;;14.50;43.62;100645.73;108217;1253;74887;-83
2023/04/11 07:18:10;;;;;;;9.20;7.00;;;;;;;14.54;44.21;100637.73;108184;1253;73874;-84
2023/04/11 07:20:40;;;;;;;11.70;7.10;;;;;;;14.57;43.71;100633.29;107971;1253;71567;-84
2023/04/11 07:23:14;;;;;;;11.10;6.70;;;;;;;14.57;43.54;100630.50;108121;1257;61377;-85
2023/04/11 07:25:44;;;;;;;8.60;6.50;;;;;;;14.61;42.76;100630.09;108244;1253;60508;-83
2023/04/11 07:28:13;;;;;;;10.10;7.10;;;;;;;14.61;41.91;100630.41;108532;1254;72957;-84
2023/04/11 07:30:41;;;;;;;8.70;6.40;;;;;;;14.62;42.28;100626.63;108291;1254;72095;-85
2023/04/11 07:33:10;;;;;;;8.90;6.30;;;;;;;14.66;42.46;100626.81;107942;1253;73976;-83
2023/04/11 07:35:39;;;;;;;10.20;7.10;;;;;;;14.69;42.57;100633.19;108107;1253;60502;-82
2023/04/11 07:38:09;;;;;;;8.70;6.50;;;;;;;14.70;42.78;100632.63;108024;1253;60323;-81
2023/04/11 07:40:38;;;;;;;9.30;6.40;;;;;;;14.73;43.01;100628.85;108113;1253;73149;-83
2023/04/11 07:43:07;;;;;;;8.90;6.10;;;;;;;14.74;42.38;100627.60;108136;1253;71976;-84
2023/04/11 07:45:38;;;;;;;9.60;5.90;;;;;;;14.74;42.69;100626.31;108181;1257;71936;-83
2023/04/11 07:48:13;;;;;;;8.50;6.40;;;;;;;14.78;43.01;100626.29;108130;1253;60326;-83
2023/04/11 07:50:44;;;;;;;11.00;6.60;;;;;;;14.76;42.84;100623.83;108116;1253;61234;-83
2023/04/11 07:53:21;;;;;;;8.80;6.70;;;;;;;14.74;42.59;100624.10;108218;1253;73909;-85
2023/04/11 07:55:49;;;;;;;9.20;6.40;;;;;;;14.73;42.62;100621.15;108128;1253;71480;-82
2023/04/11 07:58:17;;;;;;;9.40;6.40;;;;;;;14.76;42.85;100618.71;107954;1254;71897;-84
2023/04/11 08:00:46;;;;;;;8.70;6.30;;;;;;;14.80;43.31;100614.91;108118;1253;61322;-85
2023/04/11 08:03:16;;;;;;;8.90;6.10;;;;;;;14.86;43.10;100607.65;108108;1253;60325;-82
2023/04/11 08:05:44;;;;;;;9.50;6.40;;;;;;;14.93;42.89;100605.00;107941;1253;74390;-82
2023/04/11 08:08:16;;;;;;;9.10;6.10;;;;;;;15.08;43.29;100600.21;108124;1253;72495;-83
2023/04/11 08:10:44;;;;;;;9.40;6.20;;;;;;;15.21;42.55;100591.63;108056;1253;73627;-82
2023/04/11 08:13:14;;;;;;;8.30;6.30;;;;;;;15.28;41.62;100590.47;108008;1257;60314;-84
2023/04/11 08:15:46;;;;;;;10.40;6.10;;;;;;;15.33;41.76;100586.10;108080;1253;60332;-82
2023/04/11 08:18:20;;;;;;;9.70;6.00;;;;;;;15.41;41.43;100580.35;108036;1253;74699;-85
2023/04/11 08:20:48;;;;;;;9.10;5.80;;;;;;;15.49;41.68;100575.02;107841;1254;71410;-84
2023/04/11 08:23:18;;;;;;;9.00;6.10;;;;;;;15.53;41.55;100578.15;108085;1253;73126;-84
2023/04/11 08:25:47;;;;;;;7.50;5.80;;;;;;;15.56;41.15;100569.48;108142;1253;60553;-84
2023/04/11 08:28:15;;;;;;;6.90;5.10;;;;;;;15.62;41.32;100565.25;108169;1253;60325;-85
2023/04/11 08:30:45;;;;;;;9.70;5.70;;;;;;;15.72;41.38;100564.14;108111;1253;74008;-84
2023/04/11 08:33:14;;;;;;;8.30;5.20;;;;;;;15.82;40.69;100558.98;108067;1253;72887;-85
2023/04/11 08:35:47;;;;;;;7.40;5.50;;;;;;;15.92;40.73;100556.69;108131;1253;71671;-85
2023/04/11 08:38:19;;;;;;;9.70;6.20;;;;;;;16.03;40.95;100553.98;108165;1253;60804;-84
2023/04/11 08:40:49;;;;;;;9.40;5.70;;;;;;;16.18;41.41;100548.79;108022;1253;60209;-85
2023/04/11 08:43:19;;;;;;;7.60;5.50;;;;;;;16.37;41.15;100547.14;108054;1253;74064;-84
2023/04/11 08:45:47;;;;;;;9.50;5.50;;;;;;;16.56;40.21;100542.86;108097;1253;71719;-85
2023/04/11 08:48:18;;;;;;;7.90;5.50;;;;;;;16.70;40.11;100536.79;108271;1253;72475;-85
2023/04/11 08:50:47;;;;;;;8.80;5.70;;;;;;;16.86;40.39;100533.42;108568;1253;60969;-84
2023/04/11 08:53:23;;;;;;;9.20;5.80;;;;;;;16.98;40.56;100531.37;108656;1253;60316;-83
2023/04/11 08:55:52;;;;;;;8.40;5.20;;;;;;;17.06;40.10;100530.29;108428;1253;72909;-82
2023/04/11 08:58:23;;;;;;;7.70;5.10;;;;;;;17.11;39.93;100533.59;108182;1253;70650;-83
2023/04/11 09:00:52;;;;;;;8.10;5.60;;;;;;;17.09;40.00;100526.83;108152;1253;73580;-83
2023/04/11 09:03:20;;;;;;;8.10;5.80;;;;;;;17.09;39.98;100523.65;108100;1253;60318;-84
2023/04/11 09:05:50;;;;;;;9.30;4.90;;;;;;;17.12;40.56;100518.95;108076;1253;60404;-83
2023/04/11 09:08:20;;;;;;;8.50;4.60;;;;;;;17.26;40.75;100520.55;108112;1253;74082;-84
2023/04/11 09:10:49;;;;;;;8.30;5.50;;;;;;;17.41;40.09;100515.36;108132;1257;72883;-84
2023/04/11 09:13:24;;;;;;;8.00;5.50;;;;;;;17.52;40.27;100508.88;108163;1253;72322;-85
2023/04/11 09:16:13;;;;;;;7.50;5.10;;;;;;;17.63;40.33;100505.10;108196;1253;61086;-82
2023/04/11 09:18:43;;;;;;;10.30;5.30;;;;;;;17.71;39.68;100499.71;108098;1254;60434;-84
2023/04/11 09:21:26;;;;;;;7.90;5.00;;;;;;;17.74;39.80;100496.73;108103;1254;74857;-84
2023/04/11 09:24:14;;;;;;;7.00;4.70;;;;;;;17.81;39.88;100491.67;108653;1253;71879;-84
2023/04/11 09:26:42;;;;;;;7.50;4.20;;;;;;;17.90;39.97;100486.65;108612;1253;70465;-87
2023/04/11 09:29:11;;;;;;;7.70;4.20;;;;;;;18.05;40.68;100486.17;108348;1253;59380;-85
2023/04/11 09:31:45;;;;;;;6.50;4.50;;;;;;;18.25;40.52;100484.77;108477;1254;60410;-87
2023/04/11 09:34:20;;;;;;;9.10;4.30;;;;;;;18.36;39.31;100478.21;108564;1256;73844;-85
2023/04/11 09:36:53;;;;;;;6.30;3.90;;;;;;;18.35;39.45;100480.64;108669;1253;72848;-84
2023/04/11 09:39:23;;;;;;;6.40;4.00;;;;;;;18.33;39.24;100479.09;108337;1257;72337;-85
2023/04/11 09:41:53;;;;;;;7.20;4.60;;;;;;;18.35;39.87;100474.45;108128;1253;62079;-85
2023/04/11 09:44:37;;;;;;;5.30;4.20;;;;;;;18.37;39.10;100474.05;108078;1258;60477;-85
2023/04/11 09:47:05;;;;;;;9.30;4.90;;;;;;;18.35;39.08;100471.36;108178;1253;73928;-85
2023/04/11 09:49:34;;;;;;;9.10;4.30;;;;;;;18.30;39.58;100469.91;108196;1254;72973;-85
2023/04/11 09:52:04;;;;;;;5.50;4.70;;;;;;;18.33;39.73;100465.73;108041;1256;74038;-86
2023/04/11 09:54:33;;;;;;;6.10;4.40;;;;;;;18.29;39.48;100461.21;108053;1254;60958;-86
2023/04/11 09:57:03;;;;;;;6.20;4.40;;;;;;;18.25;39.91;100456.53;108074;1254;61519;-86
2023/04/11 09:59:33;;;;;;;7.20;5.00;;;;;;;18.25;40.58;100451.05;108143;1253;72703;-86
2023/04/11 10:02:02;;;;;;;6.80;4.50;;;;;;;18.28;39.87;100435.52;108087;1254;70836;-85
2023/04/11 10:04:31;;;;;;;6.90;4.50;;;;;;;18.23;39.81;100437.11;108017;1253;70610;-86
2023/04/11 10:07:20;;;;;;;6.00;4.40;;;;;;;18.21;40.42;100438.88;108042;1254;60394;-87
2023/04/11 10:09:49;;;;;;;6.70;4.10;;;;;;;18.26;40.53;100433.76;108133;1253;61183;-86
2023/04/11 10:12:30;;;;;;;7.70;4.40;;;;;;;18.35;40.85;100434.44;108186;1257;73204;-88
2023/04/11 10:15:10;;;;;;;9.10;4.30;;;;;;;18.47;40.03;100430.30;108163;1253;72682;-84
2023/04/11 10:17:40;;;;;;;6.50;3.40;;;;;;;18.59;39.76;100429.77;108807;1253;72515;-84
2023/04/11 10:20:39;;;;;;;7.20;4.40;;;;;;;18.72;40.00;100428.72;108738;1253;59514;-83
2023/04/11 10:23:07;;;;;;;5.30;3.60;;;;;;;18.87;39.44;100421.95;108073;1257;61240;-85
2023/04/11 10:25:54;;;;;;;6.50;4.10;;;;;;;18.98;39.01;100417.28;108169;1253;74510;-87
2023/04/11 10:28:32;;;;;;;6.80;4.00;;;;;;;19.03;38.80;100412.48;108209;1253;72777;-83
2023/04/11 10:31:11;;;;;;;6.90;4.30;;;;;;;19.01;37.93;100406.98;108162;1253;73125;-84
2023/04/11 10:33:40;;;;;;;7.00;4.10;;;;;;;18.96;37.98;100405.23;108127;1253;60864;-85
2023/04/11 10:36:11;;;;;;;5.70;4.00;;;;;;;19.02;38.73;100398.83;107969;1257;60317;-85
2023/04/11 10:38:47;;;;;;;9.20;4.30;;;;;;;19.16;38.95;100402.14;108018;1254;74447;-84
2023/04/11 10:41:32;;;;;;;5.80;4.00;;;;;;;19.21;38.31;100397.84;108090;1253;72022;-85
2023/04/11 10:44:22;;;;;;;7.30;3.90;;;;;;;19.24;37.67;100391.12;108186;1253;73601;-84
2023/04/11 10:46:52;;;;;;;5.70;3.60;;;;;;;19.28;37.38;100387.36;108028;1253;61555;-86
2023/04/11 10:49:33;;;;;;;8.10;4.70;;;;;;;19.31;37.79;100383.79;108199;1253;61344;-84
2023/04/11 10:52:20;;;;;;;5.90;3.80;;;;;;;19.35;38.42;100379.33;108060;1254;74038;-85
2023/04/11 10:54:50;;;;;;;5.00;3.90;;;;;;;19.40;37.64;100376.70;108114;1257;73927;-85
2023/04/11 10:57:27;;;;;;;6.50;4.20;;;;;;;19.41;36.77;100378.30;108122;1253;72042;-85
2023/04/11 10:59:57;;;;;;;7.80;4.10;;;;;;;19.49;37.40;100376.50;108051;1256;60376;-84
2023/04/11 11:02:26;;;;;;;7.40;4.70;;;;;;;19.65;37.65;100377.34;108143;1253;60438;-86
2023/04/11 11:04:54;;;;;;;6.90;4.40;;;;;;;19.79;37.43;100377.23;108102;1253;74104;-85
2023/04/11 11:07:23;;;;;;;7.70;4.70;;;;;;;19.87;36.57;100371.73;108136;1253;73363;-86
2023/04/11 11:09:53;;;;;;;9.40;4.40;;;;;;;19.86;35.99;100374.33;108114;1253;71759;-85
2023/04/11 11:12:22;;;;;;;6.70;4.00;;;;;;;19.80;36.54;100370.44;108127;1255;60484;-86
2023/04/11 11:14:50;;;;;;;6.00;3.80;;;;;;;19.81;36.30;100365.31;108096;1253;61300;-82
2023/04/11 11:17:18;;;;;;;6.90;4.10;;;;;;;19.85;35.80;100364.47;108052;1253;73066;-86
2023/04/11 11:19:48;;;;;;;6.70;4.30;;;;;;;19.89;35.34;100362.98;107998;1259;72735;-83
2023/04/11 11:22:17;;;;;;;5.50;4.10;;;;;;;19.90;35.09;100357.41;108110;1253;72666;-89
2023/04/11 11:24:45;;;;;;;6.40;4.20;;;;;;;19.86;35.51;100355.37;108174;1253;60035;-85
2023/04/11 11:27:22;;;;;;;6.10;3.90;;;;;;;19.83;35.63;100352.01;108150;1253;61510;-86
2023/04/11 11:29:51;;;;;;;6.70;4.10;;;;;;;19.87;35.95;100352.77;108144;1253;73289;-86
2023/04/11 11:32:23;;;;;;;6.00;4.20;;;;;;;19.92;36.49;100350.73;108016;1253;72185;-87